createdAt,value
2018-06-12T00:00:38.550Z,21.53
2018-06-12T00:03:07.338Z,22.23
2018-06-12T00:05:36.004Z,27.60
2018-06-12T00:08:04.716Z,22.57
2018-06-12T00:10:33.263Z,21.73
2018-06-12T00:13:01.887Z,30.90
2018-06-12T00:15:30.542Z,23.97
2018-06-12T00:17:59.745Z,23.70
2018-06-12T00:20:28.338Z,23.30
2018-06-12T00:22:57.580Z,24.77
2018-06-12T00:25:26.150Z,29.33
2018-06-12T00:27:54.796Z,25.60
2018-06-12T00:30:23.458Z,28.23
2018-06-12T00:32:52.247Z,21.73
2018-06-12T00:35:20.903Z,25.43
2018-06-12T00:37:49.553Z,23.10
2018-06-12T00:40:18.189Z,34.97
2018-06-12T00:42:46.874Z,22.33
2018-06-12T00:45:15.504Z,27.50
2018-06-12T00:47:44.086Z,23.67
2018-06-12T00:50:12.650Z,31.40
2018-06-12T00:52:43.405Z,22.60
2018-06-12T00:55:12.061Z,31.00
2018-06-12T00:57:40.633Z,23.03
2018-06-12T01:00:10.185Z,31.03
2018-06-12T01:02:38.824Z,26.47
2018-06-12T01:05:06.993Z,30.50
2018-06-12T01:07:35.620Z,24.30
2018-06-12T01:10:04.281Z,32.83
2018-06-12T01:12:33.710Z,23.93
2018-06-12T01:15:02.310Z,31.83
2018-06-12T01:17:30.883Z,31.67
2018-06-12T01:19:59.477Z,24.33
2018-06-12T01:22:31.269Z,32.50
2018-06-12T01:24:59.934Z,31.33
2018-06-12T01:27:28.613Z,24.17
2018-06-12T01:29:57.161Z,31.13
2018-06-12T01:32:25.769Z,22.53
2018-06-12T01:34:54.328Z,30.03
2018-06-12T01:37:22.964Z,23.53
2018-06-12T01:39:51.620Z,34.03
2018-06-12T01:42:20.217Z,23.77
2018-06-12T01:44:48.902Z,31.40
2018-06-12T01:47:17.688Z,24.27
2018-06-12T01:49:46.234Z,32.23
2018-06-12T01:52:14.781Z,24.37
2018-06-12T01:54:43.654Z,29.20
2018-06-12T01:57:12.235Z,23.57
2018-06-12T01:59:40.812Z,30.07
2018-06-12T02:02:09.402Z,25.80
2018-06-12T02:04:39.134Z,37.60
2018-06-12T02:07:07.847Z,27.00
2018-06-12T02:09:36.944Z,33.90
2018-06-12T02:12:05.510Z,24.27
2018-06-12T02:14:34.873Z,35.73
2018-06-12T02:17:03.579Z,26.30
2018-06-12T02:19:32.125Z,35.90
2018-06-12T02:22:00.792Z,32.70
2018-06-12T02:24:29.349Z,34.20
2018-06-12T02:26:58.005Z,31.40
2018-06-12T02:29:26.620Z,22.67
2018-06-12T02:31:55.273Z,31.17
2018-06-12T02:34:23.861Z,22.93
2018-06-12T02:36:52.429Z,29.53
2018-06-12T02:39:21.053Z,22.07
2018-06-12T02:41:49.704Z,30.17
2018-06-12T02:44:18.312Z,27.43
2018-06-12T02:46:47.247Z,33.17
2018-06-12T02:49:15.894Z,28.40
2018-06-12T02:51:44.568Z,28.20
2018-06-12T02:54:13.140Z,24.33
2018-06-12T02:56:41.769Z,30.43
2018-06-12T02:59:10.406Z,30.17
2018-06-12T03:01:39.019Z,34.17
2018-06-12T03:04:07.701Z,26.30
2018-06-12T03:06:36.278Z,34.37
2018-06-12T03:09:07.582Z,34.43
2018-06-12T03:11:36.142Z,25.90
2018-06-12T03:14:04.786Z,33.47
2018-06-12T03:16:33.336Z,28.60
2018-06-12T03:19:02.149Z,36.97
2018-06-12T03:21:31.477Z,31.73
2018-06-12T03:24:00.079Z,42.03
2018-06-12T03:26:28.732Z,43.17
2018-06-12T03:28:57.308Z,30.47
2018-06-12T03:31:26.600Z,44.43
2018-06-12T03:33:55.206Z,37.73
2018-06-12T03:36:27.770Z,36.00
2018-06-12T03:38:56.366Z,46.77
2018-06-12T03:41:25.074Z,41.63
2018-06-12T03:43:53.742Z,40.50
2018-06-12T03:46:23.092Z,29.00
2018-06-12T03:48:52.011Z,42.07
2018-06-12T03:51:20.729Z,42.30
2018-06-12T03:53:49.275Z,30.03
2018-06-12T03:56:17.808Z,41.97
2018-06-12T03:58:46.475Z,42.40
2018-06-12T04:01:15.053Z,32.40
2018-06-12T04:06:17.331Z,32.20
2018-06-12T04:08:46.077Z,36.07
2018-06-12T04:11:14.680Z,46.93
2018-06-12T04:13:43.622Z,36.27
2018-06-12T04:16:12.184Z,35.20
2018-06-12T04:18:40.798Z,35.33
2018-06-12T04:21:09.465Z,24.57
2018-06-12T04:23:40.295Z,39.30
2018-06-12T04:26:09.093Z,22.07
2018-06-12T04:28:37.726Z,30.87
2018-06-12T04:31:06.367Z,19.17
2018-06-12T04:33:34.948Z,22.60
2018-06-12T04:36:03.534Z,19.20
2018-06-12T04:38:32.253Z,22.47
2018-06-12T04:41:01.006Z,18.93
2018-06-12T04:43:29.693Z,24.13
2018-06-12T04:45:58.371Z,14.43
2018-06-12T04:48:26.937Z,19.90
2018-06-12T04:50:55.537Z,15.63
2018-06-12T04:53:24.143Z,21.93
2018-06-12T04:55:52.774Z,21.70
2018-06-12T04:58:21.398Z,21.23
2018-06-12T05:00:49.964Z,17.40
2018-06-12T05:03:19.347Z,17.70
2018-06-12T05:06:01.103Z,19.07
2018-06-12T05:08:29.665Z,17.90
2018-06-12T05:10:58.211Z,16.83
2018-06-12T05:13:26.769Z,22.40
2018-06-12T05:15:55.400Z,18.53
2018-06-12T05:18:23.965Z,23.17
2018-06-12T05:20:52.574Z,12.67
2018-06-12T05:23:21.181Z,21.50
2018-06-12T05:25:49.795Z,13.83
2018-06-12T05:28:18.363Z,18.30
2018-06-12T05:30:47.723Z,15.53
2018-06-12T05:33:16.321Z,21.70
2018-06-12T05:35:44.898Z,17.83
2018-06-12T05:38:13.479Z,20.03
2018-06-12T05:40:42.032Z,14.77
2018-06-12T05:43:10.862Z,21.57
2018-06-12T05:45:39.569Z,16.53
2018-06-12T05:48:08.637Z,20.80
2018-06-12T05:50:37.241Z,13.07
2018-06-12T05:53:05.845Z,16.93
2018-06-12T05:55:34.509Z,16.13
2018-06-12T05:58:03.327Z,18.87
2018-06-12T06:00:32.137Z,19.87
2018-06-12T06:03:00.813Z,16.03
2018-06-12T06:05:30.221Z,21.10
2018-06-12T06:08:00.089Z,13.73
2018-06-12T06:10:28.781Z,19.53
2018-06-12T06:12:57.481Z,16.13
2018-06-12T06:15:26.062Z,14.57
2018-06-12T06:17:54.940Z,22.10
2018-06-12T06:20:24.368Z,12.33
2018-06-12T06:22:53.552Z,16.70
2018-06-12T06:25:22.129Z,15.27
2018-06-12T06:27:50.725Z,14.77
2018-06-12T06:30:19.372Z,17.83
2018-06-12T06:32:47.910Z,21.63
2018-06-12T06:35:16.592Z,16.30
2018-06-12T06:37:45.298Z,17.80
2018-06-12T06:40:13.921Z,17.97
2018-06-12T06:42:42.505Z,26.87
2018-06-12T06:45:11.249Z,16.53
2018-06-12T06:47:39.911Z,20.50
2018-06-12T06:50:08.549Z,18.07
2018-06-12T06:52:37.144Z,21.83
2018-06-12T06:55:05.954Z,25.33
2018-06-12T06:57:34.642Z,15.33
2018-06-12T07:00:03.491Z,21.20
2018-06-12T07:02:32.183Z,17.33
2018-06-12T07:05:01.045Z,27.73
2018-06-12T07:07:29.598Z,23.27
2018-06-12T07:09:58.324Z,26.20
2018-06-12T07:12:26.885Z,16.87
2018-06-12T07:14:55.495Z,21.27
2018-06-12T07:17:24.061Z,15.87
2018-06-12T07:19:52.713Z,15.33
2018-06-12T07:22:21.389Z,22.07
2018-06-12T07:24:50.081Z,17.37
2018-06-12T07:27:18.864Z,14.77
2018-06-12T07:29:48.214Z,20.17
2018-06-12T07:32:16.851Z,13.53
2018-06-12T07:34:45.609Z,15.87
2018-06-12T07:37:14.257Z,16.80
2018-06-12T07:39:42.930Z,14.13
2018-06-12T07:42:11.602Z,13.33
2018-06-12T07:44:40.198Z,13.30
2018-06-12T07:47:09.621Z,16.70
2018-06-12T07:49:38.354Z,15.70
2018-06-12T07:52:07.533Z,12.03
2018-06-12T07:54:36.146Z,12.70
2018-06-12T07:57:04.981Z,16.20
2018-06-12T07:59:34.579Z,14.60
2018-06-12T08:02:03.251Z,13.73
2018-06-12T08:04:31.995Z,13.30
2018-06-12T08:07:00.660Z,11.67
2018-06-12T08:09:29.206Z,12.20
2018-06-12T08:11:58.010Z,12.77
2018-06-12T08:14:26.605Z,9.67
2018-06-12T08:16:55.229Z,9.73
2018-06-12T08:19:23.971Z,12.67
2018-06-12T08:21:53.225Z,13.30
2018-06-12T08:24:21.893Z,11.47
2018-06-12T08:26:50.513Z,11.73
2018-06-12T08:29:19.171Z,11.07
2018-06-12T08:31:47.804Z,13.23
2018-06-12T08:34:16.512Z,12.27
2018-06-12T08:36:45.169Z,9.67
2018-06-12T08:39:13.940Z,9.40
2018-06-12T08:41:42.639Z,10.93
2018-06-12T08:44:11.316Z,11.87
2018-06-12T08:46:40.008Z,10.67
2018-06-12T08:49:08.588Z,12.27
2018-06-12T08:51:37.152Z,11.23
2018-06-12T08:54:05.747Z,12.57
2018-06-12T08:56:34.363Z,10.37
2018-06-12T08:59:02.945Z,11.50
2018-06-12T09:01:31.605Z,11.33
2018-06-12T09:04:00.209Z,11.50
2018-06-12T09:06:28.888Z,10.03
2018-06-12T09:08:57.613Z,12.67
2018-06-12T09:11:26.370Z,12.10
2018-06-12T09:13:54.949Z,14.53
2018-06-12T09:16:23.624Z,14.77
2018-06-12T09:18:52.928Z,13.90
2018-06-12T09:21:21.534Z,13.37
2018-06-12T09:26:20.768Z,12.53
2018-06-12T09:28:49.487Z,8.70
2018-06-12T09:31:18.121Z,12.23
2018-06-12T09:33:46.653Z,12.17
2018-06-12T09:36:20.628Z,12.60
2018-06-12T09:38:49.477Z,12.20
2018-06-12T09:41:18.674Z,11.40
2018-06-12T09:43:48.086Z,11.17
2018-06-12T09:46:17.400Z,10.70
2018-06-12T09:48:46.060Z,10.27
2018-06-12T09:51:14.628Z,16.37
2018-06-12T09:53:44.335Z,11.27
2018-06-12T09:56:12.978Z,9.60
2018-06-12T09:58:41.547Z,10.97
2018-06-12T10:01:15.440Z,13.43
2018-06-12T10:03:44.052Z,8.73
2018-06-12T10:06:12.649Z,17.80
2018-06-12T10:08:41.492Z,12.73
2018-06-12T10:11:10.095Z,10.47
2018-06-12T10:13:38.725Z,12.10
2018-06-12T10:16:07.571Z,9.30
2018-06-12T10:18:36.266Z,14.50
2018-06-12T10:21:04.958Z,11.43
2018-06-12T10:23:33.623Z,11.23
2018-06-12T10:26:02.206Z,12.03
2018-06-12T10:28:30.803Z,11.33
2018-06-12T10:30:59.718Z,12.70
2018-06-12T10:33:28.369Z,12.23
2018-06-12T10:35:57.155Z,9.47
2018-06-12T10:38:25.775Z,8.90
2018-06-12T10:40:54.427Z,9.33
2018-06-12T10:43:23.289Z,11.23
2018-06-12T10:45:51.920Z,13.03
2018-06-12T10:48:20.592Z,9.30
2018-06-12T10:50:52.586Z,11.30
2018-06-12T10:53:21.220Z,11.73
2018-06-12T10:55:49.870Z,11.27
2018-06-12T10:58:18.514Z,13.77
2018-06-12T11:00:47.069Z,12.23
2018-06-12T11:03:15.649Z,14.17
2018-06-12T11:05:44.368Z,13.10
2018-06-12T11:08:12.957Z,12.63
2018-06-12T11:10:41.670Z,8.70
2018-06-12T11:13:10.376Z,12.50
2018-06-12T11:15:39.010Z,11.53
2018-06-12T11:18:07.685Z,15.10
2018-06-12T11:20:36.278Z,10.83
2018-06-12T11:23:05.033Z,14.87
2018-06-12T11:25:33.753Z,12.47
2018-06-12T11:28:02.416Z,9.47
2018-06-12T11:30:31.638Z,15.97
2018-06-12T11:33:00.261Z,12.33
2018-06-12T11:35:28.920Z,15.03
2018-06-12T11:37:59.967Z,12.63
2018-06-12T11:40:28.637Z,12.00
2018-06-12T11:42:57.170Z,19.63
2018-06-12T11:45:25.739Z,13.70
2018-06-12T11:47:54.400Z,14.43
2018-06-12T11:50:23.115Z,13.83
2018-06-12T11:52:51.765Z,14.67
2018-06-12T11:55:20.334Z,12.77
2018-06-12T11:57:48.896Z,13.00
2018-06-12T12:00:17.492Z,14.13
2018-06-12T12:02:46.091Z,16.00
2018-06-12T12:05:14.723Z,14.47
2018-06-12T12:07:43.285Z,16.10
2018-06-12T12:10:11.956Z,13.90
2018-06-12T12:12:40.800Z,19.17
2018-06-12T12:15:09.524Z,11.97
2018-06-12T12:17:38.210Z,14.30
2018-06-12T12:20:06.831Z,14.70
2018-06-12T12:22:35.372Z,10.90
2018-06-12T12:25:05.057Z,16.80
2018-06-12T12:27:33.636Z,13.00
2018-06-12T12:30:02.257Z,14.17
2018-06-12T12:32:30.850Z,15.03
2018-06-12T12:34:59.448Z,14.20
2018-06-12T12:37:28.471Z,10.90
2018-06-12T12:39:57.119Z,12.33
2018-06-12T12:42:25.685Z,14.10
2018-06-12T12:44:54.379Z,15.30
2018-06-12T12:47:23.149Z,11.53
2018-06-12T12:49:52.620Z,16.20
2018-06-12T12:52:21.258Z,14.07
2018-06-12T12:54:49.830Z,11.80
2018-06-12T12:57:18.428Z,15.93
2018-06-12T12:59:47.001Z,16.47
2018-06-12T13:02:16.030Z,13.63
2018-06-12T13:04:44.601Z,12.73
2018-06-12T13:07:13.653Z,11.70
2018-06-12T13:09:42.249Z,14.87
2018-06-12T13:12:10.845Z,21.73
2018-06-12T13:14:39.761Z,15.07
2018-06-12T13:17:30.040Z,14.57
2018-06-12T13:19:58.728Z,14.73
2018-06-12T13:22:27.357Z,14.10
2018-06-12T13:24:57.342Z,16.90
2018-06-12T13:27:26.014Z,18.13
2018-06-12T13:29:54.755Z,16.67
2018-06-12T13:32:35.922Z,17.03
2018-06-12T13:35:04.613Z,17.27
2018-06-12T13:37:33.822Z,12.53
2018-06-12T13:40:02.615Z,15.03
2018-06-12T13:42:39.767Z,16.10
2018-06-12T13:45:08.676Z,13.20
2018-06-12T13:47:37.297Z,12.70
2018-06-12T13:50:05.965Z,16.13
2018-06-12T13:52:35.355Z,13.03
2018-06-12T13:55:03.944Z,15.60
2018-06-12T13:57:32.574Z,15.73
2018-06-12T14:00:01.254Z,16.77
2018-06-12T14:02:30.868Z,16.53
2018-06-12T14:04:59.470Z,13.77
2018-06-12T14:07:28.154Z,16.63
2018-06-12T14:09:56.837Z,16.37
2018-06-12T14:12:25.497Z,18.63
2018-06-12T14:14:54.072Z,17.80
2018-06-12T14:17:22.620Z,16.83
2018-06-12T14:19:51.264Z,15.03
2018-06-12T14:22:19.948Z,16.90
2018-06-12T14:24:48.637Z,19.73
2018-06-12T14:27:17.836Z,17.73
2018-06-12T14:29:46.427Z,14.53
2018-06-12T14:32:15.160Z,13.97
2018-06-12T14:34:43.893Z,15.90
2018-06-12T14:37:12.571Z,13.77
2018-06-12T14:39:41.142Z,15.53
2018-06-12T14:42:10.535Z,16.90
2018-06-12T14:44:41.066Z,13.57
2018-06-12T14:47:10.510Z,13.63
2018-06-12T14:49:39.198Z,14.37
2018-06-12T14:52:08.187Z,14.87
2018-06-12T14:54:36.885Z,15.37
2018-06-12T14:57:05.741Z,14.73
2018-06-12T14:59:51.437Z,15.23
2018-06-12T15:02:20.395Z,15.57
2018-06-12T15:04:49.021Z,12.30
2018-06-12T15:07:18.214Z,14.53
2018-06-12T15:09:46.899Z,16.17
2018-06-12T15:12:15.582Z,15.67
2018-06-12T15:14:44.156Z,15.13
2018-06-12T15:17:12.896Z,13.07
2018-06-12T15:19:41.624Z,14.93
2018-06-12T15:22:10.754Z,13.23
2018-06-12T15:24:39.419Z,12.47
2018-06-12T15:27:08.028Z,10.60
2018-06-12T15:29:37.459Z,10.90
2018-06-12T15:32:13.695Z,15.17
2018-06-12T15:34:43.482Z,12.13
2018-06-12T15:37:41.240Z,11.13
2018-06-12T15:40:09.828Z,13.20
2018-06-12T15:42:38.487Z,12.17
2018-06-12T15:45:07.151Z,11.97
2018-06-12T15:47:35.793Z,14.10
2018-06-12T15:50:04.537Z,11.30
2018-06-12T15:52:33.108Z,12.63
2018-06-12T15:55:01.751Z,12.10
2018-06-12T15:57:30.500Z,13.00
2018-06-12T15:59:59.148Z,13.27
2018-06-12T16:02:27.841Z,11.33
2018-06-12T16:04:56.506Z,10.57
2018-06-12T16:07:25.150Z,9.30
2018-06-12T16:09:53.893Z,12.67
2018-06-12T16:12:37.119Z,10.63
2018-06-12T16:15:05.789Z,13.33
2018-06-12T16:17:34.444Z,13.43
2018-06-12T16:20:03.239Z,11.57
2018-06-12T16:22:32.702Z,10.20
2018-06-12T16:25:01.296Z,11.07
2018-06-12T16:27:30.797Z,11.70
2018-06-12T16:30:00.342Z,13.47
2018-06-12T16:32:29.045Z,17.23
2018-06-12T16:35:00.762Z,13.97
2018-06-12T16:37:29.442Z,13.60
2018-06-12T16:39:58.089Z,14.97
2018-06-12T16:42:26.770Z,14.33
2018-06-12T16:44:57.651Z,12.90
2018-06-12T16:47:26.337Z,28.73
2018-06-12T16:49:56.563Z,15.10
2018-06-12T16:52:25.187Z,14.97
2018-06-12T16:54:53.778Z,11.90
2018-06-12T16:57:22.626Z,10.50
2018-06-12T16:59:51.481Z,12.10
2018-06-12T17:02:20.147Z,14.53
2018-06-12T17:04:48.904Z,17.63
2018-06-12T17:07:17.529Z,11.43
2018-06-12T17:09:46.225Z,13.90
2018-06-12T17:12:17.317Z,14.03
2018-06-12T17:14:46.167Z,17.43
2018-06-12T17:17:20.068Z,16.03
2018-06-12T17:19:48.683Z,13.00
2018-06-12T17:22:27.571Z,12.17
2018-06-12T17:25:03.980Z,13.23
2018-06-12T17:27:34.501Z,13.60
2018-06-12T17:30:03.166Z,12.53
2018-06-12T17:32:31.817Z,10.93
2018-06-12T17:35:00.517Z,16.60
2018-06-12T17:37:29.359Z,11.80
2018-06-12T17:39:58.008Z,13.60
2018-06-12T17:42:26.678Z,9.63
2018-06-12T17:44:55.390Z,14.80
2018-06-12T17:47:24.033Z,15.13
2018-06-12T17:49:52.833Z,21.23
2018-06-12T17:52:22.033Z,10.47
2018-06-12T17:54:50.672Z,14.90
2018-06-12T17:57:19.370Z,9.27
2018-06-12T17:59:48.004Z,18.70
2018-06-12T18:02:17.990Z,9.77
2018-06-12T18:04:50.021Z,16.57
2018-06-12T18:07:18.586Z,10.50
2018-06-12T18:09:47.170Z,13.53
2018-06-12T18:12:24.333Z,14.90
2018-06-12T18:14:56.661Z,11.73
2018-06-12T18:17:25.397Z,10.27
2018-06-12T18:20:12.235Z,18.23
2018-06-12T18:22:40.901Z,11.37
2018-06-12T18:25:09.680Z,15.67
2018-06-12T18:27:38.988Z,11.43
2018-06-12T18:30:11.543Z,17.87
2018-06-12T18:32:42.938Z,13.90
2018-06-12T18:35:13.824Z,18.20
2018-06-12T18:37:42.902Z,12.50
2018-06-12T18:40:11.523Z,17.97
2018-06-12T18:42:40.209Z,15.60
2018-06-12T18:45:09.120Z,18.40
2018-06-12T18:47:37.674Z,16.77
2018-06-12T18:50:06.298Z,17.40
2018-06-12T18:52:35.292Z,16.30
2018-06-12T18:55:04.604Z,19.37
2018-06-12T18:57:33.281Z,18.63
2018-06-12T19:00:01.866Z,18.63
2018-06-12T19:02:30.622Z,15.13
2018-06-12T19:05:20.795Z,24.57
2018-06-12T19:07:50.094Z,14.90
2018-06-12T19:10:20.385Z,15.17
2018-06-12T19:12:50.304Z,12.23
2018-06-12T19:15:20.482Z,16.07
2018-06-12T19:18:02.059Z,13.37
2018-06-12T19:20:39.791Z,18.67
2018-06-12T19:23:08.472Z,17.27
2018-06-12T19:25:37.065Z,13.03
2018-06-12T19:28:05.800Z,14.07
2018-06-12T19:30:35.096Z,16.67
2018-06-12T19:33:04.987Z,13.90
2018-06-12T19:42:58.959Z,14.33
2018-06-12T19:45:27.691Z,13.63
2018-06-12T19:47:56.697Z,14.37
2018-06-12T19:50:27.389Z,11.57
2018-06-12T19:52:58.165Z,16.00
2018-06-12T19:55:26.969Z,16.10
2018-06-12T19:57:55.755Z,11.63
2018-06-12T20:00:24.552Z,10.20
2018-06-12T20:02:53.190Z,11.13
2018-06-12T20:05:21.848Z,9.30
2018-06-12T23:02:20.192Z,7.93
2018-06-12T23:04:48.837Z,3.63
2018-06-12T23:07:17.536Z,4.50
2018-06-12T23:09:46.195Z,5.57
2018-06-12T23:12:14.759Z,5.97
2018-06-12T23:14:43.343Z,4.90
2018-06-12T23:17:12.046Z,10.80
2018-06-12T23:19:51.799Z,6.33
2018-06-12T23:22:20.320Z,5.70
2018-06-12T23:24:48.955Z,4.93
2018-06-12T23:27:17.560Z,5.23
2018-06-12T23:29:46.106Z,8.83
2018-06-12T23:32:14.701Z,8.60
2018-06-12T23:34:43.921Z,6.67
2018-06-12T23:37:12.576Z,7.17
2018-06-12T23:39:41.356Z,8.27
2018-06-12T23:42:10.068Z,4.87
2018-06-12T23:44:38.601Z,7.17
2018-06-12T23:47:07.242Z,6.13
2018-06-12T23:49:35.917Z,9.60
2018-06-12T23:52:04.524Z,8.07
2018-06-12T23:54:33.085Z,9.23
2018-06-12T23:57:01.817Z,4.67
2018-06-12T23:59:30.471Z,5.73
